Burbank, California
Current Conditions -  °F | °C
As of 11:53 PM on Tuesday 25 Nov 2014 (Local Time) from KBUR Reporting Station
Clear Clear  
Wind Chill: 53°   Ceiling: Unl
Heat Index: 53°   Visibility: 10mi
Dew Point: 24°   Wind: 0mph
Humidity: 32%   Direction: NA
Pressure: 30.27"   Gusts: NA
Location:  34.18°N, 118.3°W
Report Text: KBUR 260753Z 00000KT 10SM CLR 12/M04 A3027 RMK AO2 SLP241 T01171044 402670106
Loading
Personal Weather Stations






























Interactive Weather Map New forecast layout! Learn more

10-Day Weather Forecast

Advertisements
Track Severe Weather on mobile